sensor_id;sensor_type;location;lat;lon;timestamp;P1;durP1;ratioP1;P2;durP2;ratioP2
61675;SDS011;47574;52.090;5.244;2023-07-28T00:00:12;14.5;;;11.4;;
61675;SDS011;47574;52.090;5.244;2023-07-28T00:01:48;15.4;;;11.1;;
61675;SDS011;47574;52.090;5.244;2023-07-28T00:03:24;12.5;;;10.8;;
61675;SDS011;47574;52.090;5.244;2023-07-28T00:06:36;12.1;;;9.9;;
61675;SDS011;47574;52.090;5.244;2023-07-28T00:08:13;12.1;;;9.31;;
61675;SDS011;47574;52.090;5.244;2023-07-28T00:09:49;12.5;;;9.21;;
61675;SDS011;47574;52.090;5.244;2023-07-28T00:11:25;12.5;;;9.21;;
61675;SDS011;47574;52.090;5.244;2023-07-28T00:14:37;10.3;;;9.0;;
61675;SDS011;47574;52.090;5.244;2023-07-28T00:16:13;15.7;;;10.6;;
61675;SDS011;47574;52.090;5.244;2023-07-28T00:17:49;16.9;;;10.5;;
61675;SDS011;47574;52.090;5.244;2023-07-28T00:21:02;16.9;;;10.5;;
61675;SDS011;47574;52.090;5.244;2023-07-28T00:22:41;14.4;;;9.9;;
61675;SDS011;47574;52.090;5.244;2023-07-28T00:24:17;13.0;;;9.1;;
61675;SDS011;47574;52.090;5.244;2023-07-28T00:27:30;11.0;;;9.1;;
61675;SDS011;47574;52.090;5.244;2023-07-28T00:29:06;13.7;;;8.31;;
61675;SDS011;47574;52.090;5.244;2023-07-28T00:30:42;12.1;;;8.0;;
61675;SDS011;47574;52.090;5.244;2023-07-28T00:32:18;11.2;;;7.4;;
61675;SDS011;47574;52.090;5.244;2023-07-28T00:35:31;12.1;;;7.5;;
61675;SDS011;47574;52.090;5.244;2023-07-28T00:37:08;12.3;;;7.2;;
61675;SDS011;47574;52.090;5.244;2023-07-28T00:38:44;10.21;;;7.5;;
61675;SDS011;47574;52.090;5.244;2023-07-28T00:41:57;11.8;;;7.5;;
61675;SDS011;47574;52.090;5.244;2023-07-28T00:43:33;11.4;;;7.8;;
61675;SDS011;47574;52.090;5.244;2023-07-28T00:45:10;13.7;;;7.1;;
61675;SDS011;47574;52.090;5.244;2023-07-28T00:48:22;16.2;;;7.9;;
61675;SDS011;47574;52.090;5.244;2023-07-28T00:49:59;13.3;;;7.6;;
61675;SDS011;47574;52.090;5.244;2023-07-28T00:51:35;13.9;;;7.0;;
61675;SDS011;47574;52.090;5.244;2023-07-28T00:53:13;13.4;;;7.7;;
61675;SDS011;47574;52.090;5.244;2023-07-28T00:56:26;12.8;;;7.5;;
61675;SDS011;47574;52.090;5.244;2023-07-28T00:58:03;13.1;;;7.3;;
61675;SDS011;47574;52.090;5.244;2023-07-28T00:59:40;11.9;;;7.2;;
61675;SDS011;47574;52.090;5.244;2023-07-28T01:02:52;13.6;;;7.7;;
61675;SDS011;47574;52.090;5.244;2023-07-28T01:04:28;14.9;;;8.31;;
61675;SDS011;47574;52.090;5.244;2023-07-28T01:06:08;15.8;;;8.5;;
61675;SDS011;47574;52.090;5.244;2023-07-28T01:08:00;15.8;;;8.5;;
61675;SDS011;47574;52.090;5.244;2023-07-28T01:11:25;14.5;;;8.5;;
61675;SDS011;47574;52.090;5.244;2023-07-28T01:13:01;15.2;;;7.7;;
61675;SDS011;47574;52.090;5.244;2023-07-28T01:14:38;12.8;;;7.4;;
61675;SDS011;47574;52.090;5.244;2023-07-28T01:16:14;13.1;;;7.2;;
61675;SDS011;47574;52.090;5.244;2023-07-28T01:19:27;11.5;;;7.4;;
61675;SDS011;47574;52.090;5.244;2023-07-28T01:21:04;16.4;;;7.3;;
61675;SDS011;47574;52.090;5.244;2023-07-28T01:22:46;13.8;;;7.3;;
61675;SDS011;47574;52.090;5.244;2023-07-28T01:24:42;14.0;;;8.31;;
61675;SDS011;47574;52.090;5.244;2023-07-28T01:28:09;12.9;;;8.2;;
61675;SDS011;47574;52.090;5.244;2023-07-28T01:29:46;14.6;;;8.5;;
61675;SDS011;47574;52.090;5.244;2023-07-28T01:31:22;17.0;;;8.71;;
61675;SDS011;47574;52.090;5.244;2023-07-28T01:32:58;15.4;;;8.2;;
61675;SDS011;47574;52.090;5.244;2023-07-28T01:36:10;15.4;;;8.2;;
61675;SDS011;47574;52.090;5.244;2023-07-28T01:37:46;15.1;;;9.0;;
61675;SDS011;47574;52.090;5.244;2023-07-28T01:39:22;13.8;;;8.5;;
61675;SDS011;47574;52.090;5.244;2023-07-28T01:42:35;16.4;;;9.0;;
61675;SDS011;47574;52.090;5.244;2023-07-28T01:44:11;16.5;;;9.0;;
61675;SDS011;47574;52.090;5.244;2023-07-28T01:45:47;19.3;;;10.1;;
61675;SDS011;47574;52.090;5.244;2023-07-28T01:48:59;19.41;;;9.4;;
61675;SDS011;47574;52.090;5.244;2023-07-28T01:50:35;16.0;;;9.31;;
61675;SDS011;47574;52.090;5.244;2023-07-28T01:52:11;17.41;;;9.31;;
61675;SDS011;47574;52.090;5.244;2023-07-28T01:55:24;18.3;;;9.5;;
61675;SDS011;47574;52.090;5.244;2023-07-28T01:57:00;19.3;;;9.31;;
61675;SDS011;47574;52.090;5.244;2023-07-28T01:58:36;20.3;;;9.5;;
61675;SDS011;47574;52.090;5.244;2023-07-28T02:00:12;20.5;;;11.0;;
61675;SDS011;47574;52.090;5.244;2023-07-28T02:03:25;19.8;;;11.5;;
61675;SDS011;47574;52.090;5.244;2023-07-28T02:05:01;23.1;;;12.1;;
61675;SDS011;47574;52.090;5.244;2023-07-28T02:06:38;18.61;;;11.6;;
61675;SDS011;47574;52.090;5.244;2023-07-28T02:09:50;26.3;;;12.5;;
61675;SDS011;47574;52.090;5.244;2023-07-28T02:11:26;21.8;;;12.0;;
61675;SDS011;47574;52.090;5.244;2023-07-28T02:13:02;22.6;;;11.8;;
61675;SDS011;47574;52.090;5.244;2023-07-28T02:16:14;23.2;;;13.6;;
61675;SDS011;47574;52.090;5.244;2023-07-28T02:17:50;24.1;;;13.3;;
61675;SDS011;47574;52.090;5.244;2023-07-28T02:19:26;24.0;;;12.9;;
61675;SDS011;47574;52.090;5.244;2023-07-28T02:21:03;24.3;;;13.0;;
61675;SDS011;47574;52.090;5.244;2023-07-28T02:24:15;23.0;;;13.1;;
61675;SDS011;47574;52.090;5.244;2023-07-28T02:25:51;27.6;;;14.0;;
61675;SDS011;47574;52.090;5.244;2023-07-28T02:27:27;28.8;;;13.7;;
61675;SDS011;47574;52.090;5.244;2023-07-28T02:30:40;27.2;;;13.0;;
61675;SDS011;47574;52.090;5.244;2023-07-28T02:32:16;23.8;;;13.7;;
61675;SDS011;47574;52.090;5.244;2023-07-28T02:33:53;24.1;;;13.3;;
61675;SDS011;47574;52.090;5.244;2023-07-28T02:37:05;23.6;;;13.4;;
61675;SDS011;47574;52.090;5.244;2023-07-28T02:38:41;27.3;;;14.2;;
61675;SDS011;47574;52.090;5.244;2023-07-28T02:40:17;25.3;;;13.8;;
61675;SDS011;47574;52.090;5.244;2023-07-28T02:43:29;27.6;;;13.7;;
61675;SDS011;47574;52.090;5.244;2023-07-28T02:45:06;23.3;;;13.5;;
61675;SDS011;47574;52.090;5.244;2023-07-28T02:46:43;28.6;;;13.9;;
61675;SDS011;47574;52.090;5.244;2023-07-28T02:48:19;21.8;;;12.8;;
61675;SDS011;47574;52.090;5.244;2023-07-28T02:51:31;23.7;;;13.6;;
61675;SDS011;47574;52.090;5.244;2023-07-28T02:53:07;26.1;;;13.0;;
61675;SDS011;47574;52.090;5.244;2023-07-28T02:54:43;23.5;;;13.2;;
61675;SDS011;47574;52.090;5.244;2023-07-28T02:57:56;24.3;;;13.2;;
61675;SDS011;47574;52.090;5.244;2023-07-28T02:59:32;28.7;;;13.1;;
61675;SDS011;47574;52.090;5.244;2023-07-28T03:01:08;23.2;;;12.7;;
61675;SDS011;47574;52.090;5.244;2023-07-28T03:04:20;22.8;;;12.6;;
61675;SDS011;47574;52.090;5.244;2023-07-28T03:05:56;27.4;;;14.3;;
61675;SDS011;47574;52.090;5.244;2023-07-28T03:07:32;26.5;;;13.6;;
61675;SDS011;47574;52.090;5.244;2023-07-28T03:10:45;22.8;;;13.0;;
61675;SDS011;47574;52.090;5.244;2023-07-28T03:12:21;25.6;;;14.3;;
61675;SDS011;47574;52.090;5.244;2023-07-28T03:13:57;26.0;;;13.9;;
61675;SDS011;47574;52.090;5.244;2023-07-28T03:15:33;25.5;;;13.4;;
61675;SDS011;47574;52.090;5.244;2023-07-28T03:18:45;27.5;;;14.2;;
61675;SDS011;47574;52.090;5.244;2023-07-28T03:20:21;29.6;;;15.2;;
61675;SDS011;47574;52.090;5.244;2023-07-28T03:21:58;25.9;;;14.6;;
61675;SDS011;47574;52.090;5.244;2023-07-28T03:25:11;35.5;;;16.0;;
61675;SDS011;47574;52.090;5.244;2023-07-28T03:26:48;28.4;;;15.4;;
61675;SDS011;47574;52.090;5.244;2023-07-28T03:28:24;27.5;;;15.8;;
61675;SDS011;47574;52.090;5.244;2023-07-28T03:31:37;28.9;;;16.0;;
61675;SDS011;47574;52.090;5.244;2023-07-28T03:33:13;35.81;;;16.7;;
61675;SDS011;47574;52.090;5.244;2023-07-28T03:34:49;34.6;;;16.61;;
61675;SDS011;47574;52.090;5.244;2023-07-28T03:36:27;33.9;;;16.9;;
61675;SDS011;47574;52.090;5.244;2023-07-28T03:39:39;34.21;;;16.8;;
61675;SDS011;47574;52.090;5.244;2023-07-28T03:41:15;32.5;;;17.2;;
61675;SDS011;47574;52.090;5.244;2023-07-28T03:42:51;34.9;;;16.9;;
61675;SDS011;47574;52.090;5.244;2023-07-28T03:46:04;32.6;;;17.8;;
61675;SDS011;47574;52.090;5.244;2023-07-28T03:47:41;40.21;;;18.2;;
61675;SDS011;47574;52.090;5.244;2023-07-28T03:49:18;34.0;;;17.2;;
61675;SDS011;47574;52.090;5.244;2023-07-28T03:52:30;38.1;;;18.7;;
61675;SDS011;47574;52.090;5.244;2023-07-28T03:54:06;37.4;;;18.0;;
61675;SDS011;47574;52.090;5.244;2023-07-28T03:55:42;36.0;;;17.8;;
61675;SDS011;47574;52.090;5.244;2023-07-28T03:57:18;35.4;;;18.3;;
61675;SDS011;47574;52.090;5.244;2023-07-28T04:00:30;36.1;;;18.61;;
61675;SDS011;47574;52.090;5.244;2023-07-28T04:02:07;46.3;;;18.7;;
61675;SDS011;47574;52.090;5.244;2023-07-28T04:03:43;37.21;;;18.2;;
61675;SDS011;47574;52.090;5.244;2023-07-28T04:06:55;38.81;;;18.91;;
61675;SDS011;47574;52.090;5.244;2023-07-28T04:08:31;38.9;;;18.61;;
61675;SDS011;47574;52.090;5.244;2023-07-28T04:10:07;41.9;;;19.2;;
61675;SDS011;47574;52.090;5.244;2023-07-28T04:13:20;31.2;;;18.3;;
61675;SDS011;47574;52.090;5.244;2023-07-28T04:14:56;34.81;;;17.7;;
61675;SDS011;47574;52.090;5.244;2023-07-28T04:16:32;36.4;;;17.8;;
61675;SDS011;47574;52.090;5.244;2023-07-28T04:19:45;38.4;;;17.8;;
61675;SDS011;47574;52.090;5.244;2023-07-28T04:21:21;35.1;;;18.11;;
61675;SDS011;47574;52.090;5.244;2023-07-28T04:22:57;33.8;;;17.41;;
61675;SDS011;47574;52.090;5.244;2023-07-28T04:24:34;37.31;;;17.61;;
61675;SDS011;47574;52.090;5.244;2023-07-28T04:27:46;33.9;;;17.7;;
61675;SDS011;47574;52.090;5.244;2023-07-28T04:29:22;34.9;;;17.0;;
61675;SDS011;47574;52.090;5.244;2023-07-28T04:30:58;35.9;;;18.41;;
61675;SDS011;47574;52.090;5.244;2023-07-28T04:34:10;37.6;;;17.7;;
61675;SDS011;47574;52.090;5.244;2023-07-28T04:35:46;39.4;;;18.41;;
61675;SDS011;47574;52.090;5.244;2023-07-28T04:37:23;33.3;;;17.8;;
61675;SDS011;47574;52.090;5.244;2023-07-28T04:40:35;39.71;;;18.41;;
61675;SDS011;47574;52.090;5.244;2023-07-28T04:42:11;37.4;;;17.91;;
61675;SDS011;47574;52.090;5.244;2023-07-28T04:43:47;34.4;;;18.11;;
61675;SDS011;47574;52.090;5.244;2023-07-28T04:45:23;38.1;;;18.7;;
61675;SDS011;47574;52.090;5.244;2023-07-28T04:48:35;37.71;;;19.3;;
61675;SDS011;47574;52.090;5.244;2023-07-28T04:50:11;40.5;;;18.5;;
61675;SDS011;47574;52.090;5.244;2023-07-28T04:51:48;32.1;;;17.61;;
61675;SDS011;47574;52.090;5.244;2023-07-28T04:55:00;33.3;;;17.5;;
61675;SDS011;47574;52.090;5.244;2023-07-28T04:56:36;37.4;;;18.0;;
61675;SDS011;47574;52.090;5.244;2023-07-28T04:58:12;33.4;;;17.5;;
61675;SDS011;47574;52.090;5.244;2023-07-28T05:01:25;34.9;;;17.5;;
61675;SDS011;47574;52.090;5.244;2023-07-28T05:03:02;33.6;;;17.41;;
61675;SDS011;47574;52.090;5.244;2023-07-28T05:04:38;32.9;;;17.0;;
61675;SDS011;47574;52.090;5.244;2023-07-28T05:07:50;35.1;;;17.3;;
61675;SDS011;47574;52.090;5.244;2023-07-28T05:09:26;38.81;;;17.41;;
61675;SDS011;47574;52.090;5.244;2023-07-28T05:11:02;35.0;;;17.91;;
61675;SDS011;47574;52.090;5.244;2023-07-28T05:12:38;33.5;;;17.5;;
61675;SDS011;47574;52.090;5.244;2023-07-28T05:15:51;39.81;;;18.41;;
61675;SDS011;47574;52.090;5.244;2023-07-28T05:17:27;37.5;;;17.5;;
61675;SDS011;47574;52.090;5.244;2023-07-28T05:19:04;39.5;;;18.0;;
61675;SDS011;47574;52.090;5.244;2023-07-28T05:22:19;32.8;;;16.5;;
61675;SDS011;47574;52.090;5.244;2023-07-28T05:23:55;36.1;;;17.61;;
61675;SDS011;47574;52.090;5.244;2023-07-28T05:25:31;40.21;;;17.91;;
61675;SDS011;47574;52.090;5.244;2023-07-28T05:28:44;36.81;;;17.5;;
61675;SDS011;47574;52.090;5.244;2023-07-28T05:30:20;38.0;;;18.41;;
61675;SDS011;47574;52.090;5.244;2023-07-28T05:31:57;34.0;;;18.5;;
61675;SDS011;47574;52.090;5.244;2023-07-28T05:33:34;33.8;;;17.11;;
61675;SDS011;47574;52.090;5.244;2023-07-28T05:36:46;39.0;;;18.11;;
61675;SDS011;47574;52.090;5.244;2023-07-28T05:38:22;33.5;;;17.7;;
61675;SDS011;47574;52.090;5.244;2023-07-28T05:39:58;33.8;;;18.8;;
61675;SDS011;47574;52.090;5.244;2023-07-28T05:43:12;37.71;;;18.61;;
61675;SDS011;47574;52.090;5.244;2023-07-28T05:44:48;35.0;;;18.8;;
61675;SDS011;47574;52.090;5.244;2023-07-28T05:46:24;32.5;;;18.11;;
61675;SDS011;47574;52.090;5.244;2023-07-28T05:49:37;36.1;;;18.2;;
61675;SDS011;47574;52.090;5.244;2023-07-28T05:51:13;34.81;;;18.61;;
61675;SDS011;47574;52.090;5.244;2023-07-28T05:52:49;40.81;;;19.11;;
61675;SDS011;47574;52.090;5.244;2023-07-28T05:54:26;35.21;;;18.0;;
61675;SDS011;47574;52.090;5.244;2023-07-28T05:57:38;34.1;;;18.91;;
61675;SDS011;47574;52.090;5.244;2023-07-28T05:59:14;35.71;;;18.41;;
61675;SDS011;47574;52.090;5.244;2023-07-28T06:00:50;35.31;;;18.61;;
61675;SDS011;47574;52.090;5.244;2023-07-28T06:04:03;34.9;;;18.91;;
61675;SDS011;47574;52.090;5.244;2023-07-28T06:05:39;33.9;;;18.3;;
61675;SDS011;47574;52.090;5.244;2023-07-28T06:07:15;36.0;;;18.7;;
61675;SDS011;47574;52.090;5.244;2023-07-28T06:10:27;37.31;;;18.91;;
61675;SDS011;47574;52.090;5.244;2023-07-28T06:12:03;34.9;;;18.5;;
61675;SDS011;47574;52.090;5.244;2023-07-28T06:13:40;37.0;;;18.7;;
61675;SDS011;47574;52.090;5.244;2023-07-28T06:16:52;32.8;;;18.41;;
61675;SDS011;47574;52.090;5.244;2023-07-28T06:18:29;35.21;;;18.5;;
61675;SDS011;47574;52.090;5.244;2023-07-28T06:20:05;32.8;;;18.2;;
61675;SDS011;47574;52.090;5.244;2023-07-28T06:21:42;32.5;;;17.8;;
61675;SDS011;47574;52.090;5.244;2023-07-28T06:24:54;30.9;;;17.11;;
61675;SDS011;47574;52.090;5.244;2023-07-28T06:26:30;37.31;;;17.8;;
61675;SDS011;47574;52.090;5.244;2023-07-28T06:28:06;31.3;;;17.5;;
61675;SDS011;47574;52.090;5.244;2023-07-28T06:31:19;32.21;;;17.8;;
61675;SDS011;47574;52.090;5.244;2023-07-28T06:32:55;29.9;;;17.61;;
61675;SDS011;47574;52.090;5.244;2023-07-28T06:34:31;34.1;;;18.11;;
61675;SDS011;47574;52.090;5.244;2023-07-28T06:37:43;37.21;;;18.5;;
61675;SDS011;47574;52.090;5.244;2023-07-28T06:39:19;29.4;;;16.61;;
61675;SDS011;47574;52.090;5.244;2023-07-28T06:40:56;33.3;;;18.0;;
61675;SDS011;47574;52.090;5.244;2023-07-28T06:44:09;34.1;;;17.5;;
61675;SDS011;47574;52.090;5.244;2023-07-28T06:45:45;30.0;;;17.11;;
61675;SDS011;47574;52.090;5.244;2023-07-28T06:47:21;32.21;;;18.0;;
61675;SDS011;47574;52.090;5.244;2023-07-28T06:48:57;31.0;;;18.0;;
61675;SDS011;47574;52.090;5.244;2023-07-28T06:52:09;30.0;;;17.8;;
61675;SDS011;47574;52.090;5.244;2023-07-28T06:53:46;30.9;;;17.3;;
61675;SDS011;47574;52.090;5.244;2023-07-28T06:55:22;31.1;;;17.11;;
61675;SDS011;47574;52.090;5.244;2023-07-28T06:58:35;31.3;;;18.2;;
61675;SDS011;47574;52.090;5.244;2023-07-28T07:00:11;32.4;;;17.61;;
61675;SDS011;47574;52.090;5.244;2023-07-28T07:01:48;30.9;;;17.5;;
61675;SDS011;47574;52.090;5.244;2023-07-28T07:05:00;28.8;;;17.3;;
61675;SDS011;47574;52.090;5.244;2023-07-28T07:06:37;32.21;;;18.5;;
61675;SDS011;47574;52.090;5.244;2023-07-28T07:08:13;30.3;;;18.41;;
61675;SDS011;47574;52.090;5.244;2023-07-28T07:09:49;29.2;;;17.91;;
61675;SDS011;47574;52.090;5.244;2023-07-28T07:13:01;26.3;;;17.91;;
61675;SDS011;47574;52.090;5.244;2023-07-28T07:14:37;30.0;;;17.3;;
61675;SDS011;47574;52.090;5.244;2023-07-28T07:16:14;29.6;;;18.3;;
61675;SDS011;47574;52.090;5.244;2023-07-28T07:19:27;27.1;;;17.41;;
61675;SDS011;47574;52.090;5.244;2023-07-28T07:21:04;28.4;;;16.4;;
61675;SDS011;47574;52.090;5.244;2023-07-28T07:22:40;29.9;;;17.11;;
61675;SDS011;47574;52.090;5.244;2023-07-28T07:25:52;29.9;;;16.5;;
61675;SDS011;47574;52.090;5.244;2023-07-28T07:27:28;26.5;;;16.61;;
61675;SDS011;47574;52.090;5.244;2023-07-28T07:29:04;24.1;;;15.7;;
61675;SDS011;47574;52.090;5.244;2023-07-28T07:30:40;28.5;;;16.3;;
61675;SDS011;47574;52.090;5.244;2023-07-28T07:33:53;25.0;;;15.1;;
61675;SDS011;47574;52.090;5.244;2023-07-28T07:35:29;22.0;;;13.7;;
61675;SDS011;47574;52.090;5.244;2023-07-28T07:37:05;20.5;;;14.1;;
61675;SDS011;47574;52.090;5.244;2023-07-28T07:40:17;20.5;;;13.3;;
61675;SDS011;47574;52.090;5.244;2023-07-28T07:41:53;24.3;;;12.8;;
61675;SDS011;47574;52.090;5.244;2023-07-28T07:43:29;25.3;;;12.3;;
61675;SDS011;47574;52.090;5.244;2023-07-28T07:46:43;22.1;;;12.3;;
61675;SDS011;47574;52.090;5.244;2023-07-28T07:48:19;22.3;;;11.9;;
61675;SDS011;47574;52.090;5.244;2023-07-28T07:49:55;17.91;;;10.7;;
61675;SDS011;47574;52.090;5.244;2023-07-28T07:53:07;18.41;;;11.0;;
61675;SDS011;47574;52.090;5.244;2023-07-28T07:54:43;18.11;;;10.7;;
61675;SDS011;47574;52.090;5.244;2023-07-28T07:56:19;20.41;;;11.2;;
61675;SDS011;47574;52.090;5.244;2023-07-28T07:59:32;18.8;;;11.3;;
61675;SDS011;47574;52.090;5.244;2023-07-28T08:01:08;18.2;;;10.1;;
61675;SDS011;47574;52.090;5.244;2023-07-28T08:02:44;15.6;;;10.5;;
61675;SDS011;47574;52.090;5.244;2023-07-28T08:04:20;18.11;;;10.8;;
61675;SDS011;47574;52.090;5.244;2023-07-28T08:07:32;16.0;;;10.0;;
61675;SDS011;47574;52.090;5.244;2023-07-28T08:09:08;15.8;;;9.4;;
61675;SDS011;47574;52.090;5.244;2023-07-28T08:10:45;15.7;;;9.71;;
61675;SDS011;47574;52.090;5.244;2023-07-28T08:13:57;16.4;;;9.4;;
61675;SDS011;47574;52.090;5.244;2023-07-28T08:15:33;14.6;;;8.1;;
61675;SDS011;47574;52.090;5.244;2023-07-28T08:17:10;13.7;;;7.5;;
61675;SDS011;47574;52.090;5.244;2023-07-28T08:20:22;14.8;;;7.5;;
61675;SDS011;47574;52.090;5.244;2023-07-28T08:21:58;10.8;;;6.4;;
61675;SDS011;47574;52.090;5.244;2023-07-28T08:23:35;11.4;;;6.1;;
61675;SDS011;47574;52.090;5.244;2023-07-28T08:25:11;11.7;;;5.9;;
61675;SDS011;47574;52.090;5.244;2023-07-28T08:28:23;14.3;;;5.9;;
61675;SDS011;47574;52.090;5.244;2023-07-28T08:30:00;13.3;;;5.5;;
61675;SDS011;47574;52.090;5.244;2023-07-28T08:31:36;12.6;;;5.5;;
61675;SDS011;47574;52.090;5.244;2023-07-28T08:34:48;18.41;;;5.9;;
61675;SDS011;47574;52.090;5.244;2023-07-28T08:36:25;9.5;;;5.4;;
61675;SDS011;47574;52.090;5.244;2023-07-28T08:38:01;12.2;;;6.1;;
61675;SDS011;47574;52.090;5.244;2023-07-28T08:41:13;12.6;;;6.1;;
61675;SDS011;47574;52.090;5.244;2023-07-28T08:42:49;14.4;;;6.0;;
61675;SDS011;47574;52.090;5.244;2023-07-28T08:44:28;13.8;;;6.2;;
61675;SDS011;47574;52.090;5.244;2023-07-28T08:46:05;12.5;;;5.8;;
61675;SDS011;47574;52.090;5.244;2023-07-28T08:49:17;11.8;;;5.7;;
61675;SDS011;47574;52.090;5.244;2023-07-28T08:50:54;15.1;;;5.6;;
61675;SDS011;47574;52.090;5.244;2023-07-28T08:52:30;11.3;;;4.41;;
61675;SDS011;47574;52.090;5.244;2023-07-28T08:55:42;12.3;;;5.0;;
61675;SDS011;47574;52.090;5.244;2023-07-28T08:57:18;11.6;;;5.0;;
61675;SDS011;47574;52.090;5.244;2023-07-28T08:58:58;10.0;;;4.91;;
61675;SDS011;47574;52.090;5.244;2023-07-28T09:02:14;9.0;;;5.6;;
61675;SDS011;47574;52.090;5.244;2023-07-28T09:03:51;8.0;;;5.4;;
61675;SDS011;47574;52.090;5.244;2023-07-28T09:05:28;8.1;;;4.7;;
61675;SDS011;47574;52.090;5.244;2023-07-28T09:07:04;9.6;;;5.4;;
61675;SDS011;47574;52.090;5.244;2023-07-28T09:10:19;11.8;;;5.0;;
61675;SDS011;47574;52.090;5.244;2023-07-28T09:11:55;9.0;;;4.61;;
61675;SDS011;47574;52.090;5.244;2023-07-28T09:13:35;8.31;;;4.41;;
61675;SDS011;47574;52.090;5.244;2023-07-28T09:16:49;9.21;;;4.41;;
61675;SDS011;47574;52.090;5.244;2023-07-28T09:18:25;10.7;;;4.1;;
61675;SDS011;47574;52.090;5.244;2023-07-28T09:20:01;7.4;;;3.9;;
61675;SDS011;47574;52.090;5.244;2023-07-28T09:21:38;7.1;;;3.7;;
61675;SDS011;47574;52.090;5.244;2023-07-28T09:24:52;8.0;;;4.0;;
61675;SDS011;47574;52.090;5.244;2023-07-28T09:26:36;7.8;;;3.7;;
61675;SDS011;47574;52.090;5.244;2023-07-28T09:28:12;7.0;;;3.3;;
61675;SDS011;47574;52.090;5.244;2023-07-28T09:31:28;9.31;;;3.9;;
61675;SDS011;47574;52.090;5.244;2023-07-28T09:33:06;7.7;;;3.8;;
61675;SDS011;47574;52.090;5.244;2023-07-28T09:34:42;5.7;;;3.4;;
61675;SDS011;47574;52.090;5.244;2023-07-28T09:36:18;8.31;;;3.8;;
61675;SDS011;47574;52.090;5.244;2023-07-28T09:39:31;8.71;;;4.41;;
61675;SDS011;47574;52.090;5.244;2023-07-28T09:41:10;6.9;;;3.9;;
61675;SDS011;47574;52.090;5.244;2023-07-28T09:42:47;8.9;;;4.2;;
61675;SDS011;47574;52.090;5.244;2023-07-28T09:46:02;8.6;;;4.5;;
61675;SDS011;47574;52.090;5.244;2023-07-28T09:47:40;7.0;;;4.61;;
61675;SDS011;47574;52.090;5.244;2023-07-28T09:49:20;7.7;;;4.1;;
61675;SDS011;47574;52.090;5.244;2023-07-28T09:51:02;6.6;;;4.2;;
61675;SDS011;47574;52.090;5.244;2023-07-28T09:54:29;6.9;;;4.91;;
61675;SDS011;47574;52.090;5.244;2023-07-28T09:56:08;6.9;;;4.91;;
61675;SDS011;47574;52.090;5.244;2023-07-28T09:57:50;8.5;;;4.7;;
61675;SDS011;47574;52.090;5.244;2023-07-28T09:59:30;8.0;;;4.5;;
61675;SDS011;47574;52.090;5.244;2023-07-28T10:02:49;5.9;;;4.0;;
61675;SDS011;47574;52.090;5.244;2023-07-28T10:04:26;7.8;;;4.41;;
61675;SDS011;47574;52.090;5.244;2023-07-28T10:06:02;7.4;;;4.1;;
61675;SDS011;47574;52.090;5.244;2023-07-28T10:07:40;7.1;;;4.1;;
61675;SDS011;47574;52.090;5.244;2023-07-28T10:10:57;7.2;;;4.5;;
61675;SDS011;47574;52.090;5.244;2023-07-28T10:12:39;6.0;;;4.7;;
61675;SDS011;47574;52.090;5.244;2023-07-28T10:14:24;9.4;;;4.1;;
61675;SDS011;47574;52.090;5.244;2023-07-28T10:16:01;5.5;;;4.5;;
61675;SDS011;47574;52.090;5.244;2023-07-28T10:19:13;7.6;;;4.3;;
61675;SDS011;47574;52.090;5.244;2023-07-28T10:20:56;6.9;;;4.5;;
61675;SDS011;47574;52.090;5.244;2023-07-28T10:22:42;6.4;;;4.91;;
61675;SDS011;47574;52.090;5.244;2023-07-28T10:24:20;6.2;;;5.3;;
61675;SDS011;47574;52.090;5.244;2023-07-28T10:26:35;7.3;;;5.8;;
61675;SDS011;47574;52.090;5.244;2023-07-28T10:30:04;6.7;;;5.8;;
61675;SDS011;47574;52.090;5.244;2023-07-28T10:31:50;6.9;;;6.2;;
61675;SDS011;47574;52.090;5.244;2023-07-28T10:33:28;6.2;;;5.6;;
61675;SDS011;47574;52.090;5.244;2023-07-28T10:35:06;7.6;;;5.3;;
61675;SDS011;47574;52.090;5.244;2023-07-28T10:38:28;5.7;;;5.2;;
61675;SDS011;47574;52.090;5.244;2023-07-28T10:40:23;5.8;;;5.11;;
61675;SDS011;47574;52.090;5.244;2023-07-28T10:42:04;7.9;;;4.0;;
61675;SDS011;47574;52.090;5.244;2023-07-28T10:43:41;5.6;;;4.1;;
61675;SDS011;47574;52.090;5.244;2023-07-28T10:45:18;6.4;;;3.8;;
61675;SDS011;47574;52.090;5.244;2023-07-28T10:48:34;5.11;;;3.4;;
61675;SDS011;47574;52.090;5.244;2023-07-28T10:50:11;4.91;;;3.3;;
61675;SDS011;47574;52.090;5.244;2023-07-28T10:51:48;5.5;;;3.6;;
61675;SDS011;47574;52.090;5.244;2023-07-28T10:55:00;6.7;;;3.8;;
61675;SDS011;47574;52.090;5.244;2023-07-28T10:58:12;7.4;;;4.41;;
61675;SDS011;47574;52.090;5.244;2023-07-28T11:01:30;10.3;;;4.61;;
61675;SDS011;47574;52.090;5.244;2023-07-28T11:03:07;8.2;;;4.5;;
61675;SDS011;47574;52.090;5.244;2023-07-28T11:04:45;7.7;;;4.61;;
61675;SDS011;47574;52.090;5.244;2023-07-28T11:06:21;8.0;;;4.61;;
61675;SDS011;47574;52.090;5.244;2023-07-28T11:09:39;6.2;;;4.3;;
61675;SDS011;47574;52.090;5.244;2023-07-28T11:11:15;4.91;;;4.0;;
61675;SDS011;47574;52.090;5.244;2023-07-28T11:12:52;6.2;;;3.9;;
61675;SDS011;47574;52.090;5.244;2023-07-28T11:16:05;5.7;;;4.1;;
61675;SDS011;47574;52.090;5.244;2023-07-28T11:17:41;7.3;;;4.91;;
61675;SDS011;47574;52.090;5.244;2023-07-28T11:19:22;10.7;;;5.7;;
61675;SDS011;47574;52.090;5.244;2023-07-28T11:20:58;8.9;;;5.8;;
61675;SDS011;47574;52.090;5.244;2023-07-28T11:24:11;7.8;;;5.6;;
61675;SDS011;47574;52.090;5.244;2023-07-28T11:25:54;7.4;;;5.5;;
61675;SDS011;47574;52.090;5.244;2023-07-28T11:27:30;8.31;;;6.0;;
61675;SDS011;47574;52.090;5.244;2023-07-28T11:30:43;8.5;;;6.0;;
61675;SDS011;47574;52.090;5.244;2023-07-28T11:32:19;8.0;;;6.3;;
61675;SDS011;47574;52.090;5.244;2023-07-28T11:33:56;8.5;;;5.9;;
61675;SDS011;47574;52.090;5.244;2023-07-28T11:35:33;7.5;;;5.5;;
61675;SDS011;47574;52.090;5.244;2023-07-28T11:38:46;10.9;;;5.8;;
61675;SDS011;47574;52.090;5.244;2023-07-28T11:40:22;10.3;;;5.7;;
61675;SDS011;47574;52.090;5.244;2023-07-28T11:41:58;9.81;;;5.2;;
61675;SDS011;47574;52.090;5.244;2023-07-28T11:45:12;10.7;;;5.5;;
61675;SDS011;47574;52.090;5.244;2023-07-28T11:46:50;8.1;;;4.8;;
61675;SDS011;47574;52.090;5.244;2023-07-28T11:48:29;6.8;;;4.41;;
61675;SDS011;47574;52.090;5.244;2023-07-28T11:50:06;6.1;;;4.41;;
61675;SDS011;47574;52.090;5.244;2023-07-28T11:53:20;6.6;;;4.91;;
61675;SDS011;47574;52.090;5.244;2023-07-28T11:54:57;9.9;;;5.5;;
61675;SDS011;47574;52.090;5.244;2023-07-28T11:56:34;9.71;;;5.2;;
61675;SDS011;47574;52.090;5.244;2023-07-28T11:59:48;8.2;;;5.6;;
61675;SDS011;47574;52.090;5.244;2023-07-28T12:01:24;7.2;;;5.2;;
61675;SDS011;47574;52.090;5.244;2023-07-28T12:03:01;9.0;;;5.7;;
61675;SDS011;47574;52.090;5.244;2023-07-28T12:06:16;9.0;;;5.7;;
61675;SDS011;47574;52.090;5.244;2023-07-28T12:07:52;9.0;;;5.9;;
61675;SDS011;47574;52.090;5.244;2023-07-28T12:09:28;9.0;;;5.5;;
61675;SDS011;47574;52.090;5.244;2023-07-28T12:11:05;7.5;;;4.8;;
61675;SDS011;47574;52.090;5.244;2023-07-28T12:14:32;5.2;;;4.3;;
61675;SDS011;47574;52.090;5.244;2023-07-28T12:16:09;4.8;;;3.7;;
61675;SDS011;47574;52.090;5.244;2023-07-28T12:17:59;6.0;;;3.9;;
61675;SDS011;47574;52.090;5.244;2023-07-28T12:19:41;5.8;;;3.9;;
61675;SDS011;47574;52.090;5.244;2023-07-28T12:22:53;6.5;;;4.7;;
61675;SDS011;47574;52.090;5.244;2023-07-28T12:24:29;5.9;;;3.6;;
61675;SDS011;47574;52.090;5.244;2023-07-28T12:26:06;5.3;;;3.7;;
61675;SDS011;47574;52.090;5.244;2023-07-28T12:29:18;4.8;;;3.6;;
61675;SDS011;47574;52.090;5.244;2023-07-28T12:30:54;5.11;;;3.4;;
61675;SDS011;47574;52.090;5.244;2023-07-28T12:32:30;5.4;;;3.0;;
61675;SDS011;47574;52.090;5.244;2023-07-28T12:34:06;4.41;;;2.9;;
61675;SDS011;47574;52.090;5.244;2023-07-28T12:37:20;5.4;;;3.2;;
61675;SDS011;47574;52.090;5.244;2023-07-28T12:38:56;3.6;;;3.1;;
61675;SDS011;47574;52.090;5.244;2023-07-28T12:40:32;4.1;;;3.2;;